Time;durP1;ratioP1;P1;durP2;ratioP2;P2;SDS_P1;SDS_P2;PMS_P1;PMS_P2;Temp;Humidity;BMP_temperature;BMP_pressure;BME280_temperature;BME280_humidity;BME280_pressure;Samples;Min_cycle;Max_cycle;Signal;HPM_P1;HPM_P2
2023/01/12 00:01:30;;;;;;;16.63;3.17;;;6.80;99.90;;;;;;5067689;28;20074;-84
2023/01/12 00:03:56;;;;;;;11.32;2.63;;;6.80;99.90;;;;;;5063767;28;20024;-84
2023/01/12 00:06:24;;;;;;;20.17;3.75;;;6.70;99.90;;;;;;5065961;28;20029;-84
2023/01/12 00:08:51;;;;;;;13.25;2.80;;;6.70;99.90;;;;;;5074963;28;20036;-85
2023/01/12 00:11:18;;;;;;;32.22;4.45;;;6.70;99.90;;;;;;5069098;28;20040;-86
2023/01/12 00:13:44;;;;;;;17.17;3.05;;;6.70;99.90;;;;;;5066174;28;20919;-84
2023/01/12 00:16:33;;;;;;;19.77;5.57;;;6.70;99.90;;;;;;5067232;28;20037;-84
2023/01/12 00:19:02;;;;;;;21.48;3.45;;;6.80;99.90;;;;;;5070171;28;20082;-84
2023/01/12 00:21:35;;;;;;;17.45;3.20;;;6.80;99.90;;;;;;5077525;28;20028;-84
2023/01/12 00:24:05;;;;;;;21.83;3.60;;;6.70;99.90;;;;;;5043431;28;20521;-84
2023/01/12 00:26:30;;;;;;;13.07;3.20;;;6.70;99.90;;;;;;5047003;28;20474;-84
2023/01/12 00:28:56;;;;;;;16.85;3.35;;;6.70;99.90;;;;;;5046682;28;20135;-83
2023/01/12 00:31:21;;;;;;;16.42;3.13;;;6.80;99.90;;;;;;5049168;28;20115;-84
2023/01/12 00:33:47;;;;;;;24.83;4.05;;;6.70;99.90;;;;;;5046712;28;20033;-83
2023/01/12 00:36:15;;;;;;;11.38;2.28;;;6.80;99.90;;;;;;5046640;28;20390;-85
2023/01/12 00:38:40;;;;;;;15.93;2.78;;;6.80;99.90;;;;;;5046260;28;20027;-83
2023/01/12 00:41:08;;;;;;;16.60;3.40;;;6.80;99.90;;;;;;5047855;28;20021;-84
2023/01/12 00:46:18;;;;;;;15.57;3.03;;;6.80;99.90;;;;;;5049099;28;20079;-84
2023/01/12 00:48:43;;;;;;;18.13;2.90;;;6.90;99.90;;;;;;5047583;28;20032;-84
2023/01/12 00:51:09;;;;;;;10.63;2.40;;;6.90;99.90;;;;;;5046027;28;20458;-85
2023/01/12 00:53:35;;;;;;;11.80;3.08;;;6.90;99.90;;;;;;5045385;28;20075;-87
2023/01/12 00:56:02;;;;;;;14.32;3.20;;;7.00;99.90;;;;;;5048881;28;20032;-85
2023/01/12 00:58:28;;;;;;;21.15;4.05;;;7.00;99.90;;;;;;5044083;28;20025;-85
2023/01/12 01:00:55;;;;;;;18.90;3.47;;;7.10;99.90;;;;;;5046991;28;20043;-85
2023/01/12 01:03:20;;;;;;;24.88;3.40;;;7.10;99.90;;;;;;5045290;28;20108;-84
2023/01/12 01:05:46;;;;;;;31.48;4.25;;;7.10;99.90;;;;;;5044290;28;20116;-84
2023/01/12 01:08:11;;;;;;;29.02;3.90;;;7.20;99.90;;;;;;5055336;28;20028;-86
2023/01/12 01:10:37;;;;;;;15.38;3.03;;;7.20;99.90;;;;;;5057961;28;20111;-83
2023/01/12 01:13:03;;;;;;;23.98;2.97;;;7.20;99.90;;;;;;5049575;28;20025;-85
2023/01/12 01:15:28;;;;;;;15.63;3.20;;;7.20;99.90;;;;;;5046832;28;20025;-84
2023/01/12 01:17:54;;;;;;;27.83;4.15;;;7.30;99.90;;;;;;5046858;28;20086;-83
2023/01/12 01:20:20;;;;;;;20.67;3.55;;;7.30;99.90;;;;;;5051553;28;20032;-84
2023/01/12 01:22:46;;;;;;;24.35;4.03;;;7.30;99.90;;;;;;5053812;28;20464;-85
2023/01/12 01:25:11;;;;;;;23.35;4.10;;;7.30;99.90;;;;;;5048868;28;20029;-84
2023/01/12 01:27:37;;;;;;;15.50;3.03;;;7.20;99.90;;;;;;5054216;28;20437;-84
2023/01/12 01:30:04;;;;;;;27.00;4.43;;;7.20;99.90;;;;;;5048308;28;20033;-85
2023/01/12 01:32:30;;;;;;;17.38;4.18;;;7.20;99.90;;;;;;5050105;28;20409;-85
2023/01/12 01:34:55;;;;;;;14.93;3.22;;;7.20;99.90;;;;;;5049592;28;20029;-85
2023/01/12 01:37:21;;;;;;;23.88;3.80;;;7.20;99.90;;;;;;5048901;28;20401;-85
2023/01/12 01:39:47;;;;;;;22.42;4.00;;;7.30;99.90;;;;;;5058084;28;20244;-85
2023/01/12 01:42:26;;;;;;;25.02;4.20;;;7.30;99.90;;;;;;5057859;28;20343;-86
2023/01/12 01:44:54;;;;;;;22.30;3.70;;;7.30;99.90;;;;;;5049449;28;20029;-90
2023/01/12 01:47:39;;;;;;;23.33;3.58;;;7.30;99.90;;;;;;5046655;28;20086;-87
2023/01/12 01:50:15;;;;;;;22.13;3.35;;;7.40;99.90;;;;;;5050685;28;20436;-85
2023/01/12 01:52:42;;;;;;;;;;;7.40;99.90;;;;;;5050433;28;20123;-86
2023/01/12 01:55:13;;;;;;;15.27;3.20;;;7.40;99.90;;;;;;5051897;28;19915;-85
2023/01/12 01:58:10;;;;;;;19.65;3.05;;;7.30;99.90;;;;;;5051544;28;20029;-85
2023/01/12 02:00:38;;;;;;;21.80;3.47;;;7.30;99.90;;;;;;5055609;28;20032;-87
2023/01/12 02:03:06;;;;;;;29.92;3.28;;;7.30;99.90;;;;;;5051699;28;20112;-84
2023/01/12 02:05:32;;;;;;;15.00;3.17;;;7.40;99.90;;;;;;5053150;28;20484;-86
2023/01/12 02:08:03;;;;;;;14.68;3.33;;;7.40;99.90;;;;;;5057430;28;20032;-86
2023/01/12 02:10:29;;;;;;;20.52;3.50;;;7.40;99.90;;;;;;5051969;28;20028;-87
2023/01/12 02:16:19;;;;;;;12.32;3.20;;;7.40;99.90;;;;;;5050329;28;20043;-87
2023/01/12 02:19:24;;;;;;;18.13;3.22;;;7.40;99.90;;;;;;5043913;28;20331;-87
2023/01/12 02:21:59;;;;;;;17.98;3.25;;;7.40;99.90;;;;;;5051443;28;20040;-84
2023/01/12 02:24:25;;;;;;;;;;;7.40;99.90;;;;;;5051303;28;20021;-87
2023/01/12 02:27:19;;;;;;;19.08;3.35;;;7.40;99.90;;;;;;5052652;28;20277;-85
2023/01/12 02:30:28;;;;;;;14.82;3.05;;;7.40;99.90;;;;;;5048642;28;20033;-87
2023/01/12 02:33:33;;;;;;;13.85;2.83;;;7.40;99.90;;;;;;5043895;28;20470;-84
2023/01/12 02:36:11;;;;;;;19.08;2.90;;;7.40;99.90;;;;;;5047390;28;20048;-86
2023/01/12 02:38:53;;;;;;;14.85;3.15;;;7.50;99.90;;;;;;5045863;28;20428;-87
2023/01/12 02:44:40;;;;;;;15.45;3.22;;;7.50;99.90;;;;;;5053555;28;20558;-85
2023/01/12 02:47:11;;;;;;;13.40;2.73;;;7.50;99.90;;;;;;5046434;28;20022;-84
2023/01/12 02:49:42;;;;;;;21.17;2.85;;;7.50;99.90;;;;;;5047970;28;20519;-84
2023/01/12 02:52:13;;;;;;;17.73;2.75;;;7.50;99.90;;;;;;5054027;28;20047;-84
2023/01/12 02:54:41;;;;;;;22.33;2.80;;;7.50;99.90;;;;;;5047561;28;20109;-84
2023/01/12 02:57:09;;;;;;;19.38;3.22;;;7.50;99.90;;;;;;5054340;28;20415;-84
2023/01/12 02:59:37;;;;;;;19.00;3.00;;;7.50;99.90;;;;;;5047186;28;20529;-84
2023/01/12 03:02:08;;;;;;;16.95;2.95;;;7.40;99.90;;;;;;5049777;28;20021;-87
2023/01/12 03:04:34;;;;;;;14.30;2.53;;;7.50;99.90;;;;;;5046432;28;20017;-87
2023/01/12 03:07:00;;;;;;;19.77;3.17;;;7.40;99.90;;;;;;5050272;28;20025;-86
2023/01/12 03:09:40;;;;;;;17.92;3.45;;;7.40;99.90;;;;;;5051546;28;20040;-85
2023/01/12 03:12:12;;;;;;;21.80;3.60;;;7.50;99.90;;;;;;5048818;28;20037;-88
2023/01/12 03:14:44;;;;;;;12.95;2.58;;;7.50;99.90;;;;;;5046759;28;20051;-84
2023/01/12 03:17:16;;;;;;;18.73;3.45;;;7.50;99.90;;;;;;5051633;28;20646;-87
2023/01/12 03:19:44;;;;;;;17.38;3.00;;;7.50;99.90;;;;;;5051364;28;20040;-87
2023/01/12 03:22:12;;;;;;;10.52;2.30;;;7.50;99.90;;;;;;5046157;28;20021;-83
2023/01/12 03:24:41;;;;;;;17.20;3.10;;;7.60;99.90;;;;;;5052726;28;20035;-85
2023/01/12 03:27:26;;;;;;;14.63;3.47;;;7.60;99.90;;;;;;5063049;28;20056;-84
2023/01/12 03:30:25;;;;;;;15.48;3.30;;;7.60;99.90;;;;;;5050077;28;20067;-83
2023/01/12 03:32:50;;;;;;;20.63;3.65;;;7.70;99.90;;;;;;5029398;28;20131;-85
2023/01/12 03:35:21;;;;;;;21.45;2.95;;;7.70;99.90;;;;;;5046883;28;20100;-83
2023/01/12 03:37:57;;;;;;;19.77;4.13;;;7.70;99.90;;;;;;5047674;28;20094;-83
2023/01/12 03:40:36;;;;;;;12.38;2.58;;;7.70;99.90;;;;;;5047195;28;20108;-83
2023/01/12 03:43:31;;;;;;;10.90;3.08;;;7.70;99.90;;;;;;5050378;28;20025;-84
2023/01/12 03:46:21;;;;;;;16.58;3.25;;;7.70;99.90;;;;;;5052667;28;20025;-86
2023/01/12 03:49:05;;;;;;;21.65;3.47;;;7.70;99.90;;;;;;5049148;28;20064;-83
2023/01/12 03:51:38;;;;;;;17.98;2.75;;;7.70;99.90;;;;;;5047584;28;20306;-83
2023/01/12 03:54:08;;;;;;;24.23;5.47;;;7.70;99.90;;;;;;5049924;28;20051;-83
2023/01/12 03:56:37;;;;;;;13.65;2.70;;;7.70;99.90;;;;;;5049711;28;20032;-83
2023/01/12 03:59:03;;;;;;;17.75;3.67;;;7.70;99.90;;;;;;5054549;28;20107;-86
2023/01/12 04:01:30;;;;;;;14.25;2.47;;;7.60;99.90;;;;;;5049586;28;20120;-87
2023/01/12 04:03:55;;;;;;;14.50;2.60;;;7.70;99.90;;;;;;5056287;28;20017;-83
2023/01/12 04:06:21;;;;;;;9.57;2.78;;;7.70;99.90;;;;;;5055402;28;20028;-85
2023/01/12 04:08:47;;;;;;;17.65;2.88;;;7.70;99.90;;;;;;5052134;28;20032;-83
2023/01/12 04:13:57;;;;;;;16.23;2.47;;;7.80;99.90;;;;;;5045694;28;20555;-83
2023/01/12 04:16:22;;;;;;;20.70;3.08;;;7.80;99.90;;;;;;5048182;28;20025;-82
2023/01/12 04:18:48;;;;;;;17.08;3.25;;;7.80;99.90;;;;;;5055586;28;20509;-83
2023/01/12 04:23:59;;;;;;;14.32;2.88;;;7.70;99.90;;;;;;5047030;28;20043;-84
2023/01/12 04:26:25;;;;;;;17.98;3.20;;;7.80;99.90;;;;;;5046431;28;20044;-82
2023/01/12 04:28:51;;;;;;;16.83;3.30;;;7.80;99.90;;;;;;5047478;28;20102;-83
2023/01/12 04:31:16;;;;;;;18.33;3.13;;;7.80;99.90;;;;;;5042941;28;20394;-83
2023/01/12 04:33:43;;;;;;;13.40;2.42;;;7.80;99.90;;;;;;5046325;28;20064;-83
2023/01/12 04:36:12;;;;;;;10.68;2.58;;;7.80;99.90;;;;;;5040762;28;20078;-83
2023/01/12 04:38:39;;;;;;;21.80;4.18;;;7.80;99.90;;;;;;5046069;28;20413;-84
2023/01/12 04:41:06;;;;;;;14.45;2.45;;;7.80;99.90;;;;;;5046637;28;20459;-83
2023/01/12 04:43:32;;;;;;;16.58;2.78;;;7.80;99.90;;;;;;5038295;28;20040;-84
2023/01/12 04:46:05;;;;;;;14.85;2.47;;;7.90;99.90;;;;;;5045479;28;20037;-83
2023/01/12 04:48:31;;;;;;;15.93;2.88;;;7.90;99.90;;;;;;5047689;28;20075;-84
2023/01/12 04:51:00;;;;;;;10.60;2.75;;;8.00;99.90;;;;;;5049383;28;20037;-82
2023/01/12 04:53:26;;;;;;;13.30;2.55;;;8.00;99.90;;;;;;5049466;28;20507;-82
2023/01/12 04:55:52;;;;;;;9.50;2.33;;;8.00;99.90;;;;;;5047064;28;20025;-84
2023/01/12 04:58:17;;;;;;;11.75;2.47;;;8.00;99.90;;;;;;5053332;28;20023;-84
2023/01/12 05:00:43;;;;;;;18.85;2.35;;;8.00;99.90;;;;;;5053457;28;20373;-85
2023/01/12 05:03:14;;;;;;;15.52;2.30;;;8.10;99.90;;;;;;5051855;28;20029;-91
2023/01/12 05:05:40;;;;;;;12.38;2.72;;;8.00;99.90;;;;;;5050645;28;20098;-85
2023/01/12 05:10:52;;;;;;;13.18;2.58;;;8.10;99.90;;;;;;5046126;28;20060;-86
2023/01/12 05:13:18;;;;;;;12.30;2.72;;;8.10;99.90;;;;;;5050173;28;20025;-83
2023/01/12 05:15:43;;;;;;;14.18;2.70;;;8.10;99.90;;;;;;5052914;28;20434;-83
2023/01/12 05:18:09;;;;;;;12.05;2.35;;;8.20;99.90;;;;;;5048680;28;20477;-84
2023/01/12 05:20:34;;;;;;;6.05;1.88;;;8.20;99.90;;;;;;5053979;28;20087;-86
2023/01/12 05:23:00;;;;;;;7.95;2.47;;;8.20;99.90;;;;;;5048898;28;20033;-83
2023/01/12 05:25:25;;;;;;;17.17;2.67;;;8.30;99.90;;;;;;5047040;28;20036;-84
2023/01/12 05:27:56;;;;;;;15.48;2.30;;;8.30;99.90;;;;;;5052000;28;20642;-84
2023/01/12 05:30:22;;;;;;;11.90;2.25;;;8.30;99.90;;;;;;5058795;28;20067;-84
2023/01/12 05:32:47;;;;;;;7.82;2.20;;;8.30;99.90;;;;;;5048280;28;20045;-83
2023/01/12 05:35:14;;;;;;;12.50;2.08;;;8.30;99.90;;;;;;5048976;28;20159;-84
2023/01/12 05:37:40;;;;;;;5.50;1.85;;;8.40;99.90;;;;;;5045729;28;20025;-85
2023/01/12 05:40:06;;;;;;;17.35;2.83;;;8.40;99.90;;;;;;5052973;28;20082;-84
2023/01/12 05:45:19;;;;;;;10.48;2.08;;;8.30;99.90;;;;;;5043305;28;20120;-85
2023/01/12 05:47:44;;;;;;;14.20;2.30;;;8.30;99.90;;;;;;5041363;28;20029;-83
2023/01/12 05:50:10;;;;;;;13.05;2.03;;;8.30;99.90;;;;;;5046123;28;20017;-84
2023/01/12 05:52:36;;;;;;;8.15;2.47;;;8.30;99.90;;;;;;5046574;28;20082;-85
2023/01/12 05:55:01;;;;;;;6.72;1.67;;;8.30;99.90;;;;;;5051055;28;20029;-83
2023/01/12 05:57:30;;;;;;;19.98;2.42;;;8.30;99.90;;;;;;5051393;28;20098;-84
2023/01/12 05:59:56;;;;;;;6.60;2.22;;;8.20;99.90;;;;;;5047568;28;20392;-84
2023/01/12 06:02:21;;;;;;;13.50;2.47;;;8.20;99.90;;;;;;5053636;28;20115;-84
2023/01/12 06:04:47;;;;;;;12.18;2.50;;;8.20;99.90;;;;;;5050363;28;20607;-84
2023/01/12 06:07:14;;;;;;;8.45;2.35;;;8.20;99.90;;;;;;5050631;28;20033;-83
2023/01/12 06:09:41;;;;;;;8.10;2.15;;;8.10;99.90;;;;;;5051708;28;20029;-83
2023/01/12 06:14:54;;;;;;;5.72;2.00;;;8.10;99.90;;;;;;5045023;28;20070;-84
2023/01/12 06:17:19;;;;;;;15.45;2.88;;;8.10;99.90;;;;;;5050394;28;20063;-83
2023/01/12 06:19:45;;;;;;;14.45;3.65;;;8.10;99.90;;;;;;5049737;28;20029;-83
2023/01/12 06:22:10;;;;;;;14.25;2.50;;;8.10;99.90;;;;;;5048071;28;20036;-82
2023/01/12 06:24:36;;;;;;;8.65;2.15;;;8.10;99.90;;;;;;5049270;28;20029;-84
2023/01/12 06:27:01;;;;;;;12.27;2.45;;;8.00;99.90;;;;;;5049568;28;20083;-84
2023/01/12 06:29:27;;;;;;;15.25;2.83;;;8.10;99.90;;;;;;5048647;28;20036;-83
2023/01/12 06:31:52;;;;;;;12.48;2.45;;;8.10;99.90;;;;;;5049046;28;20080;-85
2023/01/12 06:34:19;;;;;;;8.60;2.22;;;8.10;99.90;;;;;;5048654;28;20032;-82
2023/01/12 06:36:44;;;;;;;13.10;2.47;;;8.10;99.90;;;;;;5046534;28;20120;-83
2023/01/12 06:39:13;;;;;;;11.60;2.75;;;8.00;99.90;;;;;;5046946;28;20120;-81
2023/01/12 06:44:22;;;;;;;13.55;2.08;;;8.00;99.90;;;;;;5054346;28;20035;-83
2023/01/12 06:46:48;;;;;;;15.95;3.63;;;8.00;99.90;;;;;;5048688;28;20513;-83
2023/01/12 06:49:15;;;;;;;9.80;2.40;;;8.00;99.90;;;;;;5046387;28;20545;-84
2023/01/12 06:51:42;;;;;;;14.23;2.30;;;8.10;99.90;;;;;;5048587;28;20117;-86
2023/01/12 06:54:08;;;;;;;9.95;2.20;;;8.10;99.90;;;;;;5048092;28;20060;-84
2023/01/12 06:56:33;;;;;;;9.18;1.92;;;8.10;99.90;;;;;;5049495;28;20032;-84
2023/01/12 06:58:59;;;;;;;10.98;2.63;;;8.10;99.90;;;;;;5047563;28;20182;-84
2023/01/12 07:01:26;;;;;;;12.77;2.72;;;8.10;99.90;;;;;;5052002;28;20040;-84
2023/01/12 07:03:52;;;;;;;14.52;3.78;;;8.20;99.90;;;;;;5053535;28;20728;-84
2023/01/12 07:06:17;;;;;;;12.65;2.33;;;8.20;99.90;;;;;;5038444;28;20127;-83
2023/01/12 07:08:43;;;;;;;10.82;2.05;;;8.20;99.90;;;;;;5055151;28;20042;-85
2023/01/12 07:11:11;;;;;;;6.72;2.38;;;8.20;99.90;;;;;;5051267;28;20109;-83
2023/01/12 07:13:37;;;;;;;7.43;2.17;;;8.20;99.90;;;;;;5044570;28;20035;-85
2023/01/12 07:16:05;;;;;;;10.23;2.13;;;8.20;99.90;;;;;;5042961;28;20120;-84
2023/01/12 07:18:30;;;;;;;7.25;2.08;;;8.20;99.90;;;;;;5046380;28;20132;-83
2023/01/12 07:20:56;;;;;;;5.82;1.95;;;8.10;99.90;;;;;;5043032;28;20128;-86
2023/01/12 07:23:22;;;;;;;11.15;2.40;;;8.10;99.90;;;;;;5048558;28;20032;-83
2023/01/12 07:25:47;;;;;;;17.52;3.30;;;8.10;99.90;;;;;;5047882;28;20136;-83
2023/01/12 07:28:13;;;;;;;10.90;2.33;;;8.10;99.90;;;;;;5052968;28;20048;-88
2023/01/12 07:30:39;;;;;;;7.20;2.25;;;8.10;99.90;;;;;;5053330;28;20060;-82
2023/01/12 07:33:10;;;;;;;18.23;2.70;;;8.20;99.90;;;;;;5048220;28;20033;-85
2023/01/12 07:35:35;;;;;;;10.40;2.13;;;8.30;99.90;;;;;;5054008;28;20505;-85
2023/01/12 07:38:01;;;;;;;12.93;1.88;;;8.30;99.90;;;;;;5045120;28;20021;-87
2023/01/12 07:40:27;;;;;;;10.20;1.80;;;8.30;99.90;;;;;;5048876;28;20466;-85
2023/01/12 07:43:05;;;;;;;10.70;3.78;;;8.40;99.90;;;;;;5044716;28;20029;-83
2023/01/12 07:45:31;;;;;;;15.68;2.42;;;8.40;99.90;;;;;;5048509;28;20048;-85
2023/01/12 07:47:57;;;;;;;11.30;2.58;;;8.40;99.90;;;;;;5047672;28;20064;-86
2023/01/12 07:50:24;;;;;;;18.13;2.08;;;8.50;99.90;;;;;;5054085;28;20033;-84
2023/01/12 07:52:50;;;;;;;16.50;2.65;;;8.50;99.90;;;;;;5047339;28;20386;-88
2023/01/12 07:55:18;;;;;;;13.50;2.22;;;8.50;99.90;;;;;;5049158;28;20032;-84
2023/01/12 07:57:54;;;;;;;11.02;2.80;;;8.60;99.90;;;;;;5047405;28;20039;-84
2023/01/12 08:00:30;;;;;;;14.77;3.08;;;8.50;99.90;;;;;;5049844;28;20135;-83
2023/01/12 08:03:03;;;;;;;18.00;2.47;;;8.50;99.90;;;;;;5044227;28;20386;-85
2023/01/12 08:05:29;;;;;;;14.00;2.15;;;8.50;99.90;;;;;;5046579;28;20029;-81
2023/01/12 08:07:55;;;;;;;12.25;2.60;;;8.50;99.90;;;;;;5048063;28;20039;-84
2023/01/12 08:10:20;;;;;;;7.90;1.83;;;8.50;99.90;;;;;;5050541;28;20028;-84
2023/01/12 08:12:49;;;;;;;10.23;1.90;;;8.50;99.90;;;;;;5043111;28;20033;-86
2023/01/12 08:15:15;;;;;;;9.15;1.60;;;8.50;99.90;;;;;;5045365;28;20025;-83
2023/01/12 08:17:49;;;;;;;9.05;1.90;;;8.50;99.90;;;;;;5042519;28;20029;-85
2023/01/12 08:20:22;;;;;;;14.88;2.83;;;8.40;99.90;;;;;;5047218;28;20476;-84
2023/01/12 08:22:50;;;;;;;9.32;1.60;;;8.40;99.90;;;;;;5044966;28;20120;-89
2023/01/12 08:25:26;;;;;;;13.43;2.50;;;8.40;99.90;;;;;;5047539;28;20017;-85
2023/01/12 08:27:57;;;;;;;12.32;2.17;;;8.30;99.90;;;;;;5046807;28;20048;-85
2023/01/12 08:30:24;;;;;;;9.73;2.05;;;8.30;99.90;;;;;;5046967;28;20222;-84
2023/01/12 08:32:50;;;;;;;10.90;1.80;;;8.30;99.90;;;;;;5053553;28;20063;-88
2023/01/12 08:35:19;;;;;;;12.00;2.35;;;8.30;99.90;;;;;;5051237;28;20044;-86
2023/01/12 08:37:45;;;;;;;10.40;2.35;;;8.30;99.90;;;;;;5050737;28;20107;-86
2023/01/12 08:40:11;;;;;;;7.13;2.13;;;8.40;99.90;;;;;;5051802;28;20563;-84
2023/01/12 08:42:37;;;;;;;6.97;1.92;;;8.30;99.90;;;;;;5051542;28;20107;-87
2023/01/12 08:45:06;;;;;;;5.97;1.88;;;8.30;99.90;;;;;;5051244;28;20473;-86
2023/01/12 08:47:32;;;;;;;12.50;1.92;;;8.30;99.90;;;;;;5051228;28;20458;-89
2023/01/12 08:50:00;;;;;;;13.07;1.52;;;8.20;99.90;;;;;;5051551;28;20024;-87
2023/01/12 08:52:31;;;;;;;11.23;2.80;;;8.20;99.90;;;;;;5051163;28;20037;-87
2023/01/12 08:54:57;;;;;;;5.38;1.85;;;8.20;99.90;;;;;;5050807;28;20036;-85
2023/01/12 08:57:23;;;;;;;6.63;1.80;;;8.20;99.90;;;;;;5051408;28;20389;-85
2023/01/12 08:59:50;;;;;;;5.88;1.52;;;8.20;99.90;;;;;;5051320;28;20040;-84
2023/01/12 09:02:16;;;;;;;10.32;1.48;;;8.20;99.90;;;;;;5042038;28;20029;-89
2023/01/12 09:04:41;;;;;;;7.80;1.77;;;8.20;99.90;;;;;;5052673;28;20040;-84
2023/01/12 09:07:08;;;;;;;10.93;1.83;;;8.10;99.90;;;;;;5059185;28;20027;-87
2023/01/12 09:09:34;;;;;;;12.57;1.80;;;8.20;99.90;;;;;;5061109;28;20079;-90
2023/01/12 09:12:00;;;;;;;3.42;1.55;;;8.20;99.90;;;;;;5050362;28;20432;-89
2023/01/12 09:14:26;;;;;;;8.63;2.22;;;8.10;99.90;;;;;;5050223;28;20025;-84
2023/01/12 09:16:51;;;;;;;11.73;1.90;;;8.10;99.90;;;;;;5050689;28;20040;-86
2023/01/12 09:19:17;;;;;;;10.10;1.90;;;8.10;99.90;;;;;;5050657;28;20409;-85
2023/01/12 09:21:43;;;;;;;10.73;2.17;;;8.10;99.90;;;;;;5060125;28;20025;-87
2023/01/12 09:24:09;;;;;;;7.72;2.47;;;8.10;99.90;;;;;;5076297;28;20116;-88
2023/01/12 09:26:38;;;;;;;4.43;1.42;;;8.20;99.90;;;;;;5050087;28;20521;-86
2023/01/12 09:29:04;;;;;;;8.88;2.50;;;8.20;99.90;;;;;;5050402;28;20032;-86
2023/01/12 09:31:31;;;;;;;10.30;2.05;;;8.20;99.90;;;;;;5050220;28;20032;-89
2023/01/12 09:33:58;;;;;;;10.38;2.30;;;8.20;99.90;;;;;;5048740;28;20111;-86
2023/01/12 09:36:29;;;;;;;9.35;1.55;;;8.20;99.90;;;;;;5050194;28;20070;-91
2023/01/12 09:38:55;;;;;;;7.30;1.40;;;8.20;99.90;;;;;;5056550;28;20078;-82
2023/01/12 09:47:33;;;;;;;8.13;1.52;;;8.20;99.90;;;;;;5063074;28;20428;-86
2023/01/12 09:50:16;;;;;;;6.43;1.75;;;8.20;99.90;;;;;;5049665;28;20029;-88
2023/01/12 09:52:48;;;;;;;6.07;1.52;;;8.20;99.90;;;;;;5054207;28;20032;-87
2023/01/12 09:55:22;;;;;;;5.22;1.23;;;8.20;99.90;;;;;;5070789;28;20020;-83
2023/01/12 09:58:16;;;;;;;4.18;1.73;;;8.20;99.90;;;;;;5058553;28;20025;-85
2023/01/12 10:00:42;;;;;;;3.40;1.33;;;8.20;99.90;;;;;;5047066;28;20025;-88
2023/01/12 10:03:21;;;;;;;7.45;1.08;;;8.20;99.90;;;;;;5049745;28;20167;-86
2023/01/12 10:05:51;;;;;;;3.63;1.02;;;8.20;99.90;;;;;;5055290;28;20028;-86
2023/01/12 10:08:32;;;;;;;0.73;0.73;;;8.20;99.90;;;;;;5047927;28;20086;-86
2023/01/12 10:11:06;;;;;;;4.72;1.00;;;8.10;99.90;;;;;;5041347;28;20412;-86
2023/01/12 10:13:51;;;;;;;2.40;0.88;;;8.10;99.90;;;;;;5052115;28;20041;-85
2023/01/12 10:16:54;;;;;;;4.45;1.17;;;8.10;99.90;;;;;;5050099;28;20025;-86
2023/01/12 10:19:25;;;;;;;1.65;1.00;;;8.10;99.90;;;;;;5049016;28;20404;-85
2023/01/12 10:21:52;;;;;;;2.63;0.80;;;8.00;99.90;;;;;;5058072;28;20117;-87
2023/01/12 10:24:21;;;;;;;3.08;1.23;;;8.10;99.90;;;;;;5053069;28;20025;-85
2023/01/12 10:26:55;;;;;;;2.85;1.15;;;8.00;99.90;;;;;;5061686;28;20024;-88
2023/01/12 10:29:21;;;;;;;3.35;1.10;;;8.10;99.90;;;;;;5059624;28;20025;-85
2023/01/12 10:31:46;;;;;;;2.25;1.35;;;8.10;99.90;;;;;;5048412;28;20051;-88
2023/01/12 10:34:12;;;;;;;3.05;0.85;;;8.10;99.90;;;;;;5053523;28;20021;-85
2023/01/12 10:36:43;;;;;;;6.07;1.23;;;8.10;99.90;;;;;;5048214;28;20394;-89
2023/01/12 10:39:39;;;;;;;1.05;0.80;;;8.10;99.90;;;;;;5049684;28;20642;-90
2023/01/12 10:45:22;;;;;;;2.03;0.98;;;8.10;99.90;;;;;;5052839;28;20027;-85
2023/01/12 10:47:51;;;;;;;1.42;0.90;;;8.10;99.90;;;;;;5051589;28;20171;-84
2023/01/12 10:50:30;;;;;;;2.60;1.00;;;8.00;99.90;;;;;;5048574;28;20078;-85
2023/01/12 10:53:02;;;;;;;0.90;0.90;;;8.00;99.90;;;;;;5049131;28;20605;-86
2023/01/12 10:55:31;;;;;;;2.67;0.93;;;8.10;99.90;;;;;;5050001;28;20070;-86
2023/01/12 10:57:57;;;;;;;2.97;0.90;;;8.10;99.90;;;;;;5051505;28;20354;-85
2023/01/12 11:00:25;;;;;;;1.23;0.80;;;8.10;99.90;;;;;;5044363;28;20036;-85
2023/01/12 11:02:51;;;;;;;2.90;0.90;;;8.10;99.90;;;;;;5048689;28;20028;-86
2023/01/12 11:05:37;;;;;;;0.85;0.65;;;8.10;99.90;;;;;;5046655;28;20062;-85
2023/01/12 11:08:35;;;;;;;4.55;2.00;;;8.20;99.90;;;;;;5047011;28;20079;-85
2023/01/12 11:11:25;;;;;;;1.58;0.60;;;8.20;99.90;;;;;;5029901;28;20465;-87
2023/01/12 11:13:56;;;;;;;2.95;1.42;;;8.20;99.90;;;;;;5046724;28;20021;-85
2023/01/12 11:16:39;;;;;;;4.18;1.35;;;8.20;99.90;;;;;;5047740;28;20040;-83
2023/01/12 11:19:34;;;;;;;2.05;1.02;;;8.20;99.90;;;;;;5048184;28;20033;-85
2023/01/12 11:22:06;;;;;;;1.42;0.70;;;8.30;99.90;;;;;;5042521;28;20051;-88
2023/01/12 11:24:44;;;;;;;1.05;0.73;;;8.30;99.90;;;;;;5046878;28;20025;-84
2023/01/12 11:27:23;;;;;;;1.02;0.70;;;8.30;99.90;;;;;;5047206;28;20099;-89
2023/01/12 11:29:58;;;;;;;1.42;0.70;;;8.30;99.90;;;;;;5043228;28;20031;-88
2023/01/12 11:32:56;;;;;;;1.17;1.00;;;8.30;99.90;;;;;;5046724;28;20076;-86
2023/01/12 11:35:34;;;;;;;0.80;0.80;;;8.30;99.90;;;;;;5033170;28;20033;-82
2023/01/12 11:38:08;;;;;;;0.75;0.57;;;8.40;99.90;;;;;;5042391;28;20144;-84
2023/01/12 11:40:36;;;;;;;0.73;0.70;;;8.40;99.90;;;;;;5048419;28;20041;-88
2023/01/12 11:43:49;;;;;;;0.90;0.60;;;8.40;99.90;;;;;;5047373;28;20028;-88
2023/01/12 11:46:25;;;;;;;1.63;0.80;;;8.50;99.90;;;;;;5047712;28;20446;-86
2023/01/12 11:48:56;;;;;;;;;;;8.60;99.90;;;;;;5046468;28;20029;-86
2023/01/12 11:51:22;;;;;;;2.40;0.80;;;8.60;99.90;;;;;;5045815;28;20315;-85
2023/01/12 11:53:48;;;;;;;1.90;0.75;;;8.60;99.90;;;;;;5045463;28;20078;-85
2023/01/12 11:56:47;;;;;;;1.98;0.70;;;8.70;99.90;;;;;;5050919;28;20040;-84
2023/01/12 11:59:40;;;;;;;0.93;0.70;;;8.70;99.90;;;;;;5056213;28;20056;-87
2023/01/12 12:02:36;;;;;;;2.15;0.80;;;8.70;99.90;;;;;;5047174;28;20031;-85
2023/01/12 12:05:04;;;;;;;1.85;0.90;;;8.80;99.90;;;;;;5047820;28;20384;-88
2023/01/12 12:07:35;;;;;;;0.80;0.73;;;8.80;99.90;;;;;;5044395;28;20037;-83
2023/01/12 12:10:24;;;;;;;0.73;0.63;;;8.80;99.90;;;;;;5046515;28;20436;-87
2023/01/12 12:12:59;;;;;;;2.88;0.90;;;8.80;99.90;;;;;;5044669;28;20045;-86
2023/01/12 12:15:53;;;;;;;0.73;0.70;;;8.90;99.90;;;;;;5045866;28;20021;-85
2023/01/12 12:18:42;;;;;;;2.78;1.10;;;8.90;99.90;;;;;;5046527;28;20484;-87
2023/01/12 12:21:22;;;;;;;4.03;0.95;;;9.00;99.90;;;;;;5047400;28;20029;-84
2023/01/12 12:24:02;;;;;;;1.38;0.80;;;9.00;99.90;;;;;;5042986;28;20048;-88
2023/01/12 12:26:39;;;;;;;5.15;1.00;;;9.00;99.90;;;;;;5056359;28;20479;-88
2023/01/12 12:29:25;;;;;;;1.45;1.35;;;9.10;99.90;;;;;;5042820;28;20059;-86
2023/01/12 12:32:30;;;;;;;1.85;0.60;;;9.20;99.90;;;;;;5047249;28;20115;-84
2023/01/12 12:35:08;;;;;;;0.50;0.50;;;9.20;99.90;;;;;;5039781;28;20060;-84
2023/01/12 12:37:56;;;;;;;0.80;0.65;;;9.20;99.90;;;;;;5049319;28;20376;-85
2023/01/12 12:46:38;;;;;;;1.10;0.55;;;9.40;99.90;;;;;;5046642;28;20027;-87
2023/01/12 12:49:09;;;;;;;0.73;0.73;;;9.50;99.90;;;;;;5045026;28;20402;-85
2023/01/12 12:51:37;;;;;;;1.10;0.73;;;9.50;99.90;;;;;;5046298;28;20033;-85
2023/01/12 12:54:05;;;;;;;0.50;0.50;;;9.50;99.90;;;;;;5043115;28;20064;-85
2023/01/12 12:56:34;;;;;;;1.48;1.15;;;9.50;99.90;;;;;;5042979;28;20033;-86
2023/01/12 12:59:00;;;;;;;1.35;0.60;;;9.60;99.90;;;;;;5044703;28;20093;-88
2023/01/12 13:01:26;;;;;;;1.00;0.60;;;9.60;99.90;;;;;;5046789;28;20389;-84
2023/01/12 13:04:06;;;;;;;1.02;0.50;;;9.60;99.90;;;;;;5046392;28;20104;-86
2023/01/12 13:06:49;;;;;;;6.60;0.65;;;9.60;99.90;;;;;;5047227;28;20469;-87
2023/01/12 13:09:15;;;;;;;0.60;0.60;;;9.60;99.90;;;;;;5044155;28;20082;-85
2023/01/12 13:11:52;;;;;;;1.58;0.60;;;9.60;99.90;;;;;;5045744;28;20041;-84
2023/01/12 13:14:27;;;;;;;0.50;0.50;;;9.50;99.90;;;;;;5049986;28;20032;-85
2023/01/12 13:16:54;;;;;;;0.70;0.70;;;9.50;99.90;;;;;;5049549;28;20078;-85
2023/01/12 13:19:38;;;;;;;0.50;0.50;;;9.50;99.90;;;;;;5049175;28;20043;-85
2023/01/12 13:22:26;;;;;;;0.80;0.75;;;9.50;99.90;;;;;;5050682;28;20029;-86
2023/01/12 13:24:52;;;;;;;0.63;0.60;;;9.40;99.90;;;;;;5046636;28;20527;-87
2023/01/12 13:27:48;;;;;;;1.45;0.63;;;9.40;99.90;;;;;;5046044;28;20052;-85
2023/01/12 13:30:23;;;;;;;2.28;0.47;;;9.40;99.90;;;;;;5039353;28;20036;-84
2023/01/12 13:33:00;;;;;;;2.10;0.80;;;9.40;99.90;;;;;;5053725;28;20539;-86
2023/01/12 13:35:48;;;;;;;1.15;0.57;;;9.40;99.90;;;;;;5046180;28;20279;-85
2023/01/12 13:38:30;;;;;;;2.28;0.82;;;9.40;99.90;;;;;;5039989;28;20037;-90
2023/01/12 13:44:11;;;;;;;2.03;0.65;;;9.40;99.90;;;;;;5048375;28;20032;-85
2023/01/12 13:46:50;;;;;;;1.67;0.60;;;9.40;99.90;;;;;;5049458;28;20048;-85
2023/01/12 13:49:31;;;;;;;2.17;1.67;;;9.40;99.90;;;;;;5044615;28;20029;-84
2023/01/12 13:51:59;;;;;;;1.60;0.80;;;9.50;99.90;;;;;;5048726;28;20041;-85
2023/01/12 13:54:25;;;;;;;1.20;0.63;;;9.50;99.90;;;;;;5049656;28;20031;-82
2023/01/12 13:57:03;;;;;;;0.73;0.60;;;9.40;99.90;;;;;;5046875;28;20060;-85
2023/01/12 13:59:29;;;;;;;0.60;0.60;;;9.40;99.90;;;;;;5063060;28;20031;-85